createdAt,value
2023-03-13T00:02:24.052Z,7.34
2023-03-13T00:04:51.504Z,7.33
2023-03-13T00:07:18.037Z,7.25
2023-03-13T00:09:44.533Z,7.26
2023-03-13T00:12:16.165Z,7.23
2023-03-13T00:14:42.660Z,7.21
2023-03-13T00:17:09.212Z,7.23
2023-03-13T00:19:35.978Z,7.26
2023-03-13T00:22:02.477Z,7.26
2023-03-13T00:24:28.972Z,7.31
2023-03-13T00:26:55.655Z,7.33
2023-03-13T00:29:22.213Z,7.34
2023-03-13T00:31:48.849Z,7.36
2023-03-13T00:34:16.390Z,7.37
2023-03-13T00:36:42.931Z,7.38
2023-03-13T00:39:09.447Z,7.37
2023-03-13T00:41:36.410Z,7.41
2023-03-13T00:44:04.678Z,7.45
2023-03-13T00:46:31.440Z,7.47
2023-03-13T00:48:58.282Z,7.45
2023-03-13T00:51:27.037Z,7.50
2023-03-13T00:53:54.700Z,7.45
2023-03-13T00:56:22.042Z,7.43
2023-03-13T00:58:50.804Z,7.46
2023-03-13T01:01:21.902Z,7.42
2023-03-13T01:03:49.550Z,7.44
2023-03-13T01:06:17.020Z,7.43
2023-03-13T01:08:43.586Z,7.43
2023-03-13T01:11:11.382Z,7.41
2023-03-13T01:13:38.039Z,7.44
2023-03-13T01:16:08.895Z,7.41
2023-03-13T01:18:36.138Z,7.39
2023-03-13T01:21:02.874Z,7.36
2023-03-13T01:23:29.413Z,7.37
2023-03-13T01:25:56.273Z,7.40
2023-03-13T01:28:23.164Z,7.40
2023-03-13T01:30:49.748Z,7.40
2023-03-13T01:33:16.443Z,7.34
2023-03-13T01:35:43.386Z,7.33
2023-03-13T01:38:09.962Z,7.37
2023-03-13T01:40:40.970Z,7.35
2023-03-13T01:43:28.355Z,7.34
2023-03-13T01:46:00.772Z,7.36
2023-03-13T01:48:54.821Z,7.38
2023-03-13T01:51:21.801Z,7.37
2023-03-13T01:53:50.289Z,7.41
2023-03-13T01:56:20.969Z,7.44
2023-03-13T01:58:48.130Z,7.45
2023-03-13T02:01:14.683Z,7.48
2023-03-13T02:03:41.219Z,7.48
2023-03-13T02:06:07.799Z,7.53
2023-03-13T02:08:43.411Z,7.58
2023-03-13T02:11:20.035Z,7.61
2023-03-13T02:13:48.325Z,7.67
2023-03-13T02:16:15.479Z,7.71
2023-03-13T02:18:47.488Z,7.72
2023-03-13T02:21:21.067Z,7.74
2023-03-13T02:23:50.918Z,7.78
2023-03-13T02:26:17.460Z,7.80
2023-03-13T02:28:44.101Z,7.81
2023-03-13T02:31:13.580Z,7.84
2023-03-13T02:33:40.673Z,7.90
2023-03-13T02:36:07.924Z,7.99
2023-03-13T02:38:37.078Z,8.00
2023-03-13T02:41:03.646Z,8.05
2023-03-13T02:43:31.200Z,8.13
2023-03-13T02:46:02.588Z,8.21
2023-03-13T02:48:34.749Z,8.27
2023-03-13T02:51:02.883Z,8.30
2023-03-13T02:53:29.774Z,8.33
2023-03-13T02:55:56.646Z,8.31
2023-03-13T02:58:25.485Z,8.32
2023-03-13T03:00:52.674Z,8.37
2023-03-13T03:03:19.506Z,8.44
2023-03-13T03:05:46.419Z,8.52
2023-03-13T03:08:12.927Z,8.48
2023-03-13T03:10:39.781Z,8.42
2023-03-13T03:13:06.443Z,8.47
2023-03-13T03:15:32.958Z,8.50
2023-03-13T03:17:59.517Z,8.51
2023-03-13T03:20:26.183Z,8.55
2023-03-13T03:22:54.322Z,8.46
2023-03-13T03:25:20.873Z,8.37
2023-03-13T03:27:47.931Z,8.30
2023-03-13T03:30:14.930Z,8.14
2023-03-13T03:32:41.978Z,8.05
2023-03-13T03:35:08.530Z,8.02
2023-03-13T03:37:35.154Z,8.07
2023-03-13T03:40:05.716Z,8.05
2023-03-13T03:42:32.993Z,8.02
2023-03-13T03:44:59.577Z,7.99
2023-03-13T03:47:26.184Z,7.98
2023-03-13T03:49:52.986Z,7.92
2023-03-13T03:52:19.720Z,7.87
2023-03-13T03:54:46.380Z,7.93
2023-03-13T03:57:14.953Z,8.01
2023-03-13T03:59:44.269Z,8.10
2023-03-13T04:02:11.267Z,8.18
2023-03-13T04:04:39.361Z,8.16
2023-03-13T04:07:11.808Z,8.16
2023-03-13T04:09:39.842Z,8.14
2023-03-13T04:12:08.336Z,8.14
2023-03-13T04:14:39.428Z,8.13
2023-03-13T04:17:08.495Z,8.11
2023-03-13T04:19:35.050Z,8.18
2023-03-13T04:22:01.616Z,8.24
2023-03-13T04:24:28.180Z,8.28
2023-03-13T04:26:56.478Z,8.36
2023-03-13T04:29:26.401Z,8.53
2023-03-13T04:32:00.174Z,8.62
2023-03-13T04:34:46.984Z,8.65
2023-03-13T04:37:20.685Z,8.73
2023-03-13T04:40:02.630Z,8.86
2023-03-13T04:42:47.600Z,8.93
2023-03-13T04:45:37.035Z,9.26
2023-03-13T04:48:22.203Z,9.41
2023-03-13T04:51:11.154Z,9.61
2023-03-13T04:53:48.454Z,9.77
2023-03-13T04:56:43.317Z,9.85
2023-03-13T04:59:26.559Z,9.97
2023-03-13T05:02:09.390Z,10.09
2023-03-13T05:04:48.099Z,10.18
2023-03-13T05:07:24.863Z,10.00
2023-03-13T05:09:51.370Z,10.08
2023-03-13T05:12:36.570Z,10.06
2023-03-13T05:15:28.813Z,10.05
2023-03-13T05:18:11.242Z,10.02
2023-03-13T05:20:46.381Z,10.10
2023-03-13T05:23:36.350Z,9.99
2023-03-13T05:26:22.923Z,9.94
2023-03-13T05:29:09.716Z,10.11
2023-03-13T05:31:59.316Z,10.14
2023-03-13T05:34:37.275Z,10.20
2023-03-13T05:37:34.429Z,10.05
2023-03-13T05:40:13.178Z,10.09
2023-03-13T05:43:00.041Z,10.08
2023-03-13T05:45:45.139Z,10.01
2023-03-13T05:48:24.259Z,10.07
2023-03-13T05:51:11.582Z,10.08
2023-03-13T05:54:16.237Z,10.19
2023-03-13T05:56:58.291Z,10.17
2023-03-13T05:59:47.211Z,10.14
2023-03-13T06:02:33.970Z,10.15
2023-03-13T06:05:01.630Z,10.23
2023-03-13T06:07:28.238Z,10.25
2023-03-13T06:09:54.945Z,10.29
2023-03-13T06:12:21.508Z,10.29
2023-03-13T06:14:48.145Z,10.40
2023-03-13T06:17:14.630Z,10.46
2023-03-13T06:19:41.152Z,10.48
2023-03-13T06:22:07.716Z,10.46
2023-03-13T06:24:34.233Z,10.52
2023-03-13T06:27:00.738Z,10.58
2023-03-13T06:29:27.343Z,10.60
2023-03-13T06:31:54.129Z,10.68
2023-03-13T06:34:20.771Z,10.65
2023-03-13T06:36:47.482Z,10.63
2023-03-13T06:39:13.996Z,10.76
2023-03-13T06:41:40.573Z,10.76
2023-03-13T06:44:07.240Z,10.77
2023-03-13T06:46:33.826Z,10.96
2023-03-13T06:49:00.924Z,10.89
2023-03-13T06:51:27.448Z,11.06
2023-03-13T06:53:54.394Z,11.07
2023-03-13T06:56:21.851Z,11.03
2023-03-13T06:58:48.858Z,11.11
2023-03-13T07:01:15.814Z,11.08
2023-03-13T07:03:42.463Z,11.11
2023-03-13T07:06:09.373Z,11.10
2023-03-13T07:08:36.495Z,11.25
2023-03-13T07:11:04.666Z,11.20
2023-03-13T07:13:31.197Z,11.26
2023-03-13T07:16:01.420Z,11.35
2023-03-13T07:18:27.980Z,11.33
2023-03-13T07:20:55.473Z,11.38
2023-03-13T07:23:22.441Z,11.33
2023-03-13T07:25:55.624Z,11.34
2023-03-13T07:28:22.434Z,11.31
2023-03-13T07:30:49.580Z,11.26
2023-03-13T07:33:16.584Z,11.33
2023-03-13T07:35:52.380Z,11.34
2023-03-13T07:38:19.189Z,11.31
2023-03-13T07:40:49.723Z,11.37
2023-03-13T07:43:16.290Z,11.35
2023-03-13T07:45:58.108Z,11.28
2023-03-13T07:48:26.189Z,11.23
2023-03-13T07:50:54.082Z,11.23
2023-03-13T07:53:23.756Z,11.28
2023-03-13T07:55:54.001Z,11.34
2023-03-13T07:58:20.542Z,11.38
2023-03-13T08:00:47.107Z,11.42
2023-03-13T08:03:13.695Z,11.46
2023-03-13T08:05:40.438Z,11.67
2023-03-13T08:08:06.960Z,11.86
2023-03-13T08:10:33.474Z,11.94
2023-03-13T08:13:00.026Z,12.01
2023-03-13T08:15:26.632Z,12.19
2023-03-13T08:17:53.396Z,12.33
2023-03-13T08:20:19.925Z,12.47
2023-03-13T08:22:50.595Z,12.51
2023-03-13T08:25:17.268Z,12.64
2023-03-13T08:27:43.854Z,12.71
2023-03-13T08:30:10.653Z,12.87
2023-03-13T08:32:37.275Z,13.00
2023-03-13T08:35:04.260Z,13.05
2023-03-13T08:37:33.556Z,13.13
2023-03-13T08:40:00.278Z,13.25
2023-03-13T08:42:27.255Z,13.34
2023-03-13T08:44:53.765Z,13.43
2023-03-13T08:47:20.331Z,13.37
2023-03-13T08:49:46.891Z,13.32
2023-03-13T08:52:13.460Z,13.32
2023-03-13T08:54:39.984Z,13.41
2023-03-13T08:57:06.511Z,13.41
2023-03-13T08:59:33.105Z,13.39
2023-03-13T09:01:59.734Z,13.45
2023-03-13T09:04:26.280Z,13.45
2023-03-13T09:06:53.192Z,13.50
2023-03-13T09:09:19.728Z,13.41
2023-03-13T09:11:46.260Z,13.49
2023-03-13T09:14:12.757Z,13.53
2023-03-13T09:16:39.293Z,13.52
2023-03-13T09:19:06.104Z,13.53
2023-03-13T09:21:33.538Z,13.65
2023-03-13T09:24:00.385Z,13.79
2023-03-13T09:26:27.867Z,13.83
2023-03-13T09:28:54.581Z,13.96
2023-03-13T09:31:22.426Z,14.08
2023-03-13T09:33:49.716Z,14.25
2023-03-13T09:36:18.166Z,14.53
2023-03-13T09:38:46.668Z,14.36
2023-03-13T09:41:20.637Z,14.42
2023-03-13T09:43:48.405Z,14.22
2023-03-13T09:46:34.089Z,14.30
2023-03-13T09:49:01.334Z,14.24
2023-03-13T09:51:32.069Z,14.11
2023-03-13T09:53:59.865Z,14.28
2023-03-13T09:56:30.875Z,14.58
2023-03-13T09:58:59.157Z,14.97
2023-03-13T10:01:29.856Z,15.43
2023-03-13T10:04:13.068Z,15.68
2023-03-13T10:06:40.735Z,15.62
2023-03-13T10:09:18.990Z,15.53
2023-03-13T10:11:48.187Z,15.53
2023-03-13T10:14:17.118Z,15.37
2023-03-13T10:17:06.950Z,15.27
2023-03-13T10:19:37.899Z,15.15
2023-03-13T10:22:08.819Z,15.20
2023-03-13T10:24:53.770Z,15.66
2023-03-13T10:27:20.306Z,15.89
2023-03-13T10:29:46.827Z,16.04
2023-03-13T10:32:14.334Z,16.63
2023-03-13T10:35:03.308Z,16.55
2023-03-13T10:37:30.855Z,16.95
2023-03-13T10:40:12.132Z,16.92
2023-03-13T10:42:40.493Z,16.83
2023-03-13T10:45:07.295Z,17.49
2023-03-13T10:47:34.580Z,17.59
2023-03-13T10:50:01.203Z,17.53
2023-03-13T10:52:32.730Z,17.03
2023-03-13T10:55:04.105Z,16.61
2023-03-13T10:57:31.956Z,16.56
2023-03-13T10:59:58.889Z,16.57
2023-03-13T11:02:27.358Z,16.83
2023-03-13T11:04:54.170Z,17.69
2023-03-13T11:07:32.580Z,18.59
2023-03-13T11:10:02.241Z,18.79
2023-03-13T11:12:28.922Z,18.94
2023-03-13T11:14:59.042Z,19.05
2023-03-13T11:17:38.078Z,18.63
2023-03-13T11:20:23.824Z,18.28
2023-03-13T11:22:50.323Z,17.60
2023-03-13T11:25:28.572Z,18.15
2023-03-13T11:28:13.996Z,19.11
2023-03-13T11:30:51.764Z,19.99
2023-03-13T11:33:22.505Z,20.12
2023-03-13T11:36:04.864Z,19.99
2023-03-13T11:38:39.269Z,20.00
2023-03-13T11:41:09.249Z,20.51
2023-03-13T11:43:42.016Z,20.86
2023-03-13T11:46:08.880Z,20.93
2023-03-13T11:48:35.507Z,20.31
2023-03-13T11:51:21.292Z,19.72
2023-03-13T11:54:00.744Z,19.79
2023-03-13T11:56:36.710Z,19.94
2023-03-13T11:59:03.166Z,19.77
2023-03-13T12:01:36.876Z,19.92
2023-03-13T12:04:19.455Z,19.83
2023-03-13T12:06:52.750Z,19.88
2023-03-13T12:09:36.267Z,19.64
2023-03-13T12:12:05.689Z,19.20
2023-03-13T12:14:40.833Z,19.23
2023-03-13T12:17:14.165Z,19.36
2023-03-13T12:19:54.066Z,19.36
2023-03-13T12:22:29.029Z,18.92
2023-03-13T12:25:00.488Z,19.23
2023-03-13T12:27:37.851Z,19.06
2023-03-13T12:30:47.780Z,19.61
2023-03-13T12:33:27.240Z,19.75
2023-03-13T12:36:21.157Z,19.81
2023-03-13T12:38:58.698Z,19.50
2023-03-13T12:41:30.062Z,19.40
2023-03-13T12:44:08.362Z,19.44
2023-03-13T12:46:43.153Z,19.69
2023-03-13T12:49:28.137Z,19.76
2023-03-13T12:52:17.895Z,19.89
2023-03-13T12:55:07.049Z,20.15
2023-03-13T12:58:12.273Z,20.22
2023-03-13T13:00:41.635Z,20.36
2023-03-13T13:03:13.767Z,20.45
2023-03-13T13:05:40.508Z,20.38
2023-03-13T13:08:24.501Z,20.16
2023-03-13T13:10:51.153Z,19.91
2023-03-13T13:13:25.909Z,19.88
2023-03-13T13:16:07.994Z,20.05
2023-03-13T13:18:35.063Z,20.16
2023-03-13T13:21:07.533Z,20.39
2023-03-13T13:23:47.091Z,20.32
2023-03-13T13:26:29.736Z,20.45
2023-03-13T13:29:19.045Z,20.29
2023-03-13T13:31:49.585Z,20.10
2023-03-13T13:34:28.162Z,20.08
2023-03-13T13:36:55.321Z,19.95
2023-03-13T13:39:33.325Z,20.01
2023-03-13T13:42:31.660Z,19.91
2023-03-13T13:45:00.385Z,19.83
2023-03-13T13:47:28.663Z,19.83
2023-03-13T13:50:00.328Z,19.78
2023-03-13T13:52:32.462Z,19.58
2023-03-13T13:54:59.163Z,19.74
2023-03-13T13:57:36.233Z,19.64
2023-03-13T14:00:15.783Z,19.66
2023-03-13T14:02:52.405Z,19.78
2023-03-13T14:05:22.679Z,19.67
2023-03-13T14:07:53.511Z,19.51
2023-03-13T14:10:45.774Z,19.57
2023-03-13T14:13:20.680Z,19.53
2023-03-13T14:15:53.123Z,19.73
2023-03-13T14:18:23.569Z,19.87
2023-03-13T14:20:50.098Z,19.91
2023-03-13T14:23:42.369Z,19.88
2023-03-13T14:26:29.329Z,19.78
2023-03-13T14:28:58.214Z,19.83
2023-03-13T14:31:33.119Z,20.06
2023-03-13T14:34:02.314Z,20.12
2023-03-13T14:36:29.172Z,20.22
2023-03-13T14:38:58.054Z,20.28
2023-03-13T14:41:46.176Z,20.28
2023-03-13T14:44:34.951Z,20.23
2023-03-13T14:47:08.209Z,20.26
2023-03-13T14:49:35.448Z,20.13
2023-03-13T14:52:15.793Z,20.22
2023-03-13T14:55:02.362Z,20.26
2023-03-13T14:57:29.006Z,20.21
2023-03-13T14:59:59.680Z,20.12
2023-03-13T15:02:32.329Z,19.91
2023-03-13T15:05:01.202Z,19.85
2023-03-13T15:07:37.566Z,19.59
2023-03-13T15:10:32.059Z,19.83
2023-03-13T15:12:58.974Z,19.95
2023-03-13T15:15:25.887Z,19.73
2023-03-13T15:17:52.605Z,19.77
2023-03-13T15:20:19.390Z,19.68
2023-03-13T15:22:46.594Z,19.66
2023-03-13T15:25:19.377Z,19.47
2023-03-13T15:27:46.292Z,19.33
2023-03-13T15:30:20.913Z,19.38
2023-03-13T15:32:48.128Z,19.45
2023-03-13T15:35:28.031Z,19.45
2023-03-13T15:37:55.998Z,19.35
2023-03-13T15:40:24.337Z,19.24
2023-03-13T15:42:51.977Z,19.11
2023-03-13T15:45:18.850Z,19.12
2023-03-13T15:47:45.834Z,19.16
2023-03-13T15:50:13.547Z,19.33
2023-03-13T15:52:40.247Z,19.38
2023-03-13T15:55:08.128Z,19.36
2023-03-13T15:57:44.697Z,19.35
2023-03-13T16:00:29.474Z,19.30
2023-03-13T16:02:56.102Z,19.14
2023-03-13T16:05:22.821Z,19.24
2023-03-13T16:07:49.533Z,19.42
2023-03-13T16:10:25.200Z,19.56
2023-03-13T16:12:52.307Z,19.56
2023-03-13T16:15:18.904Z,19.48
2023-03-13T16:17:45.552Z,19.35
2023-03-13T16:20:18.478Z,19.22
2023-03-13T16:22:45.165Z,19.10
2023-03-13T16:25:12.174Z,18.94
2023-03-13T16:27:40.422Z,18.81
2023-03-13T16:30:14.261Z,18.60
2023-03-13T16:32:41.239Z,18.46
2023-03-13T16:35:08.125Z,18.27
2023-03-13T16:37:34.744Z,18.16
2023-03-13T16:40:02.284Z,18.08
2023-03-13T16:42:28.886Z,17.92
2023-03-13T16:44:55.528Z,17.83
2023-03-13T16:47:28.286Z,17.81
2023-03-13T16:49:55.364Z,17.64
2023-03-13T16:52:21.971Z,17.48
2023-03-13T16:54:48.586Z,17.38
2023-03-13T16:57:17.972Z,17.39
2023-03-13T16:59:44.787Z,17.31
2023-03-13T17:02:16.732Z,17.17
2023-03-13T17:04:44.986Z,17.08
2023-03-13T17:07:20.682Z,17.08
2023-03-13T17:09:47.351Z,17.01
2023-03-13T17:12:13.991Z,16.91
2023-03-13T17:14:40.602Z,16.75
2023-03-13T17:17:12.713Z,16.55
2023-03-13T17:19:39.377Z,16.48
2023-03-13T17:22:06.178Z,16.40
2023-03-13T17:24:32.921Z,16.23
2023-03-13T17:26:59.550Z,16.13
2023-03-13T17:29:26.203Z,16.14
2023-03-13T17:31:52.778Z,16.11
2023-03-13T17:34:20.199Z,16.19
2023-03-13T17:36:47.672Z,16.25
2023-03-13T17:39:15.418Z,16.30
2023-03-13T17:41:42.037Z,16.31
2023-03-13T17:44:09.066Z,16.32
2023-03-13T17:46:46.684Z,16.32
2023-03-13T17:49:14.858Z,16.32
2023-03-13T17:51:42.278Z,16.31
2023-03-13T17:54:09.188Z,16.32
2023-03-13T17:56:39.255Z,16.33
2023-03-13T17:59:10.583Z,16.28
2023-03-13T18:01:37.722Z,16.27
2023-03-13T18:04:04.448Z,16.25
2023-03-13T18:06:37.784Z,16.24
2023-03-13T18:09:08.560Z,16.24
2023-03-13T18:11:36.928Z,16.23
2023-03-13T18:14:05.431Z,16.26
2023-03-13T18:16:38.309Z,16.26
2023-03-13T18:19:06.288Z,16.27
2023-03-13T18:21:33.479Z,16.30
2023-03-13T18:24:00.381Z,16.31
2023-03-13T18:26:31.068Z,16.35
2023-03-13T18:29:01.267Z,16.32
2023-03-13T18:31:31.992Z,16.29
2023-03-13T18:33:59.628Z,15.98
2023-03-13T18:36:27.352Z,15.61
2023-03-13T18:38:54.279Z,15.10
2023-03-13T18:41:20.961Z,14.75
2023-03-13T18:43:48.358Z,14.41
2023-03-13T18:46:27.864Z,13.85
2023-03-13T18:48:55.093Z,12.83
2023-03-13T18:51:26.661Z,12.48
2023-03-13T18:53:54.790Z,12.26
2023-03-13T18:56:23.664Z,12.15
2023-03-13T18:58:51.572Z,12.13
2023-03-13T19:01:20.951Z,12.20
2023-03-13T19:03:48.284Z,12.32
2023-03-13T19:06:29.504Z,12.33
2023-03-13T19:09:02.072Z,12.37
2023-03-13T19:11:31.946Z,12.24
2023-03-13T19:13:59.034Z,12.24
2023-03-13T19:16:31.196Z,12.18
2023-03-13T19:18:58.464Z,12.27
2023-03-13T19:21:27.454Z,12.26
2023-03-13T19:23:54.936Z,12.28
2023-03-13T19:26:40.060Z,12.38
2023-03-13T19:29:13.108Z,12.36
2023-03-13T19:31:39.878Z,12.41
2023-03-13T19:34:06.659Z,12.43
2023-03-13T19:36:37.298Z,12.43
2023-03-13T19:39:05.872Z,12.34
2023-03-13T19:41:35.488Z,12.21
2023-03-13T19:44:02.172Z,12.27
2023-03-13T19:46:29.898Z,12.22
2023-03-13T19:49:01.603Z,12.03
2023-03-13T19:51:29.437Z,11.98
2023-03-13T19:53:56.631Z,11.99
2023-03-13T19:56:25.750Z,12.11
2023-03-13T19:58:57.535Z,12.08
2023-03-13T20:01:24.151Z,12.11
2023-03-13T20:03:50.813Z,12.15
2023-03-13T20:06:22.450Z,12.09
2023-03-13T20:08:50.540Z,12.01
2023-03-13T20:11:17.215Z,11.94
2023-03-13T20:13:44.206Z,11.68
2023-03-13T20:16:11.720Z,11.77
2023-03-13T20:18:39.424Z,11.66
2023-03-13T20:21:07.112Z,11.63
2023-03-13T20:23:33.747Z,11.65
2023-03-13T20:26:11.095Z,11.06
2023-03-13T20:28:39.222Z,10.90
2023-03-13T20:31:06.664Z,10.38
2023-03-13T20:33:35.035Z,10.23
2023-03-13T20:36:07.449Z,9.96
2023-03-13T20:38:34.927Z,9.94
2023-03-13T20:41:01.979Z,9.99
2023-03-13T20:43:29.184Z,10.03
2023-03-13T20:45:56.966Z,9.93
2023-03-13T20:48:26.255Z,9.88
2023-03-13T20:50:54.803Z,10.00
2023-03-13T20:53:21.805Z,10.10
2023-03-13T20:55:48.681Z,10.14
2023-03-13T20:58:16.481Z,10.01
2023-03-13T21:00:43.759Z,10.09
2023-03-13T21:03:10.548Z,10.23
2023-03-13T21:05:40.571Z,10.21
2023-03-13T21:08:08.091Z,10.26
2023-03-13T21:10:41.917Z,10.30
2023-03-13T21:13:09.663Z,10.25
2023-03-13T21:15:36.809Z,10.24
2023-03-13T21:18:04.237Z,10.18
2023-03-13T21:20:31.203Z,10.23
2023-03-13T21:22:58.024Z,10.27
2023-03-13T21:25:24.728Z,10.23
2023-03-13T21:27:51.526Z,10.22
2023-03-13T21:30:20.328Z,10.26
2023-03-13T21:32:47.646Z,10.28
2023-03-13T21:35:14.392Z,10.13
2023-03-13T21:37:42.839Z,9.97
2023-03-13T21:40:10.196Z,9.96
2023-03-13T21:42:37.688Z,9.94
2023-03-13T21:45:05.374Z,9.99
2023-03-13T21:47:36.699Z,10.03
2023-03-13T21:50:06.319Z,10.15
2023-03-13T21:52:38.252Z,10.20
2023-03-13T21:55:09.031Z,10.21
2023-03-13T21:57:35.729Z,10.22
2023-03-13T22:00:04.697Z,10.20
2023-03-13T22:02:37.436Z,10.03
2023-03-13T22:05:04.880Z,9.97
2023-03-13T22:07:31.687Z,10.01
2023-03-13T22:09:58.573Z,10.00
2023-03-13T22:12:25.798Z,9.96
2023-03-13T22:14:52.950Z,9.93
2023-03-13T22:17:20.378Z,9.90
2023-03-13T22:19:47.551Z,9.83
2023-03-13T22:22:14.940Z,9.74
2023-03-13T22:24:41.725Z,9.82
2023-03-13T22:27:10.270Z,9.72
2023-03-13T22:29:36.910Z,9.65
2023-03-13T22:32:04.304Z,9.58
2023-03-13T22:34:31.405Z,9.62
2023-03-13T22:36:58.030Z,9.70
2023-03-13T22:39:24.606Z,9.66
2023-03-13T22:41:51.259Z,9.64
2023-03-13T22:44:17.873Z,9.71
2023-03-13T22:46:44.557Z,9.72
2023-03-13T22:49:11.194Z,9.76
2023-03-13T22:51:37.800Z,9.80
2023-03-13T22:54:04.443Z,9.80
2023-03-13T22:56:31.061Z,9.86
2023-03-13T22:58:57.693Z,9.88
2023-03-13T23:01:24.389Z,9.90
2023-03-13T23:03:51.014Z,9.96
2023-03-13T23:06:22.306Z,9.95
2023-03-13T23:08:49.256Z,9.84
2023-03-13T23:11:16.538Z,9.84
2023-03-13T23:13:43.376Z,9.74
2023-03-13T23:16:11.081Z,9.65
2023-03-13T23:18:38.410Z,9.65
2023-03-13T23:21:07.476Z,9.66
2023-03-13T23:23:34.495Z,9.67
2023-03-13T23:26:02.394Z,9.65
2023-03-13T23:28:29.050Z,9.61
2023-03-13T23:30:55.769Z,9.56
2023-03-13T23:33:22.444Z,9.58
2023-03-13T23:35:49.069Z,9.52
2023-03-13T23:38:18.443Z,9.42
2023-03-13T23:40:45.216Z,9.40
2023-03-13T23:43:11.878Z,9.51
2023-03-13T23:45:38.511Z,9.56
2023-03-13T23:48:05.348Z,9.52
2023-03-13T23:50:32.146Z,9.56
2023-03-13T23:52:58.776Z,9.53
2023-03-13T23:55:25.374Z,9.57
2023-03-13T23:57:51.984Z,9.55
